HOURLY OBS INDEX

024

Murray Valley

LOXTON RESEARCH CENTRE

Site: 024024
Alt: 30.1m
33km SSW of RENMARK


  Time     Wind        Temp  DP   Baro     Rain since   Rain past  Vis(m), Cloud(base in m), Weather
  local        km/h                         9am  last   hr   10m    
Wed 15:30   SW 24/ 33  16.1 -0.1  1017.2    0.0   0.0   0.0   0.0   ----- 
Wed 16:00   SW 17/ 22  16.1  0.6  1017.3    0.0   0.0   0.0   0.0   ----- 
Wed 16:30   SW 17/ 26  16.5 -2.0  1017.3    0.0   0.0   0.0   0.0   ----- 
Wed 17:00  WSW 24/ 37  15.5 -1.6  1017.7    0.0   0.0   0.0   0.0   ----- 
Wed 17:03  WSW 28/ 46  15.0 -1.0  1017.7    0.0   0.0  ----   0.0   ----- 
Wed 17:30    W 13/ 26  14.9  1.3  1018.1    0.0   0.0   0.0   0.0   ----- 
Wed 18:00  SSW 11/ 17  13.9  2.6  1018.7    0.0   0.0   0.0   0.0   ----- 
Wed 18:30   SW 11/ 22  13.9  1.6  1019.2    0.0   0.0   0.0   0.0   ----- 
Wed 19:00  SSW 13/ 20  12.8  5.0  1019.8    0.0   0.0   0.0   0.0   ----- 
Wed 19:30  WSW  7/ 11  12.4  5.3  1020.3    0.0   0.0   0.0   0.0   ----- 
Wed 20:00   SW 13/ 19  12.0  4.2  1020.8    0.0   0.0   0.0   0.0   ----- 
Wed 20:30   SW 13/ 15  11.7  3.6  1021.0    0.0   0.0   0.0   0.0   ----- 

MURRAY BRIDGE (PALLAMANA AERODROME)

Site: 024584
Alt: 45.0m
7km NW of MURRAY BRIDGE


  Time     Wind        Temp  DP   Baro     Rain since   Rain past  Vis(m), Cloud(base in m), Weather
  local        km/h                         9am  last   hr   10m    
Wed 15:30    W 28/ 35  15.4 -0.3  1017.9    0.0   0.0   0.0   0.0   10000|BR1770 BR2220 BR2490 
Wed 16:00   SW 28/ 35  13.7  3.8  1018.2    0.0   0.0   0.0   0.0   10000|BR1590 OC2130 
Wed 16:30    S 19/ 26  11.7  7.3  1018.7    0.0   0.0   0.0   0.0   10000|BR1470 OC1860 
Wed 17:00  SSW 17/ 22  10.5  8.0  1019.3    0.2   0.2   0.2   0.0   10000|SC1170 SC1290 OC1650 
Wed 17:30   SW 15/ 20  10.2  8.1  1019.8    0.6   0.4   0.6   0.4   10000|SC1200 BR1440 BR1650 
Wed 18:00  WSW 11/ 13  10.0  8.4  1019.9    1.4   0.8   1.2   0.0   10000|SC1410 BR1620 BR1860 
Wed 18:30   SW  9/ 11  10.1  8.0  1020.1    1.4   0.0   0.8   0.0   10000|SC1800 BR2190 OC2670 
Wed 19:00  WSW  9/ 11  10.0  8.4  1020.3    1.6   0.2   0.2   0.0   10000|BR1740 BR2280 OC2670 
Wed 19:30  WSW  7/  9   9.4  7.9  1020.5    1.6   0.0   0.2   0.0   10000|BR2520 
Wed 20:00  WNW  9/ 11   8.5  7.2  1020.8    1.6   0.0   0.0   0.0   10000|BR3300 
Wed 20:30  WNW  9/ 11   8.7  7.6  1020.8    1.6   0.0   0.0   0.0   10000|OC2880 

RENMARK AERO

Site: 024048
Alt: 31.5m
7km WSW of RENMARK


  Time     Wind        Temp  DP   Baro     Rain since   Rain past  Vis(m), Cloud(base in m), Weather
  local        km/h                         9am  last   hr   10m    
Wed 15:30  WSW 26/ 35  16.7  0.8  1017.1    0.0   0.0   0.0   0.0   10000|SC1980 SC2220 OC2550 
Wed 16:00   SW 20/ 30  16.1  0.3  1017.2    0.0   0.0   0.0   0.0   10000|BR2550 
Wed 16:30  WSW 17/ 24  16.3  0.4  1017.3    0.0   0.0   0.0   0.0   10000|SC1890 BR2670 OC3300 
Wed 17:00  WSW 22/ 32  16.1 -1.9  1017.5    0.0   0.0   0.0   0.0   10000|SC2340 BR3000 
Wed 17:30  WSW 26/ 37  15.5  0.1  1017.9    0.0   0.0   0.0   0.0   10000|BR2370 OC2670 
Wed 18:00  WSW 22/ 33  14.9  1.4  1018.5    0.0   0.0   0.0   0.0   10000|SC2100 SC2340 OC3000 
Wed 18:30  WSW 20/ 30  14.4  2.0  1019.0    0.0   0.0   0.0   0.0   10000|BR2340 OC2910 
Wed 19:00  WSW 19/ 28  14.0  2.3  1019.5    0.0   0.0   0.0   0.0   10000|BR2490 
Wed 19:30  WSW 17/ 24  13.6  2.2  1019.9    0.0   0.0   0.0   0.0   10000|SC2220 OC2700 
Wed 20:00    S 17/ 28  12.3  4.5  1020.6    0.0   0.0   0.0   0.0   10000|SC1800 SC2190 OC2580 
Wed 20:30   SW 15/ 20  10.3  7.9  1021.0    0.0   0.0   0.0   0.0   10000|SC1740 OC2100 

STRATHALBYN RACECOURSE

Site: 024580
Alt: 58.0m
39km NE of VICTOR HARBOR


  Time     Wind        Temp  DP   Baro     Rain since   Rain past  Vis(m), Cloud(base in m), Weather
  local        km/h                         9am  last   hr   10m    
Wed 15:30  SSW 24/ 33  12.8  5.2  1017.8    0.0   0.0   0.0   0.0   ----- 
Wed 16:00    S 19/ 26  11.1  6.3  1018.4    0.0   0.0   0.0   0.0   ----- 
Wed 16:30   SW 11/ 17  10.7  6.8  1018.7    0.0   0.0   0.0   0.0   ----- 
Wed 17:00  WSW 11/ 15  10.3  7.0  1018.8    0.6   0.6   0.6   0.0   ----- 
Wed 17:30  WSW 13/ 17  10.4  7.3  1019.0    0.8   0.2   0.8   0.2   ----- 
Wed 18:00  WSW 13/ 22  10.2  6.4  1019.3    0.8   0.0   0.2   0.0   ----- 
Wed 18:30  SSW 11/ 15   9.7  6.8  1019.5    1.4   0.6   0.6   0.2   ----- 
Wed 19:00    W  6/  9   9.1  6.4  1019.7    1.4   0.0   0.6   0.0   ----- 
Wed 19:30   NW 13/ 17   8.5  6.1  1019.7    1.4   0.0   0.0   0.0   ----- 
Wed 20:00   NW 11/ 13   8.9  6.3  1020.1    1.4   0.0   0.0   0.0   ----- 
Wed 20:30    N  6/  6   7.6  5.1  1020.3    1.4   0.0   0.0   0.0   -----